WetterOnline ( https://www.wetteronline.de )

Wetter aktuell Schönsee

Aktuelles Wetter: Waldmünchen (499m)

6-stündlich | Neueste Meldungen
Ortszeit Temperatur Wetter
Mo, 23.05. 20:00 17.0° C bedeckt
Mo, 23.05. 14:00 18.4° C leichter Regen
Mo, 23.05. 8:00 12.4° C bedeckt
Mo, 23.05. 2:00 9.5° C bewölkt
So, 22.05. 20:00 18.5° C fast wolkenlos
So, 22.05. 14:00 17.7° C wolkig
So, 22.05. 8:00 11.9° C wolkig
So, 22.05. 2:00 9.3° C bedeckt
Ortszeit Temperatur Wetter
Mo, 23.05. 23:00 15.2° C leichter Regen
Mo, 23.05. 22:50 15.2° C leichter Regen
Mo, 23.05. 22:40 15.5° C leichter Regen
Mo, 23.05. 22:30 15.4° C leichter Regen
Mo, 23.05. 22:20 15.4° C leichter Regen
Mo, 23.05. 22:10 15.2° C Regen
Mo, 23.05. 22:00 15.6° C leichter Regen
Mo, 23.05. 21:30 16.1° C leichter Regen
Mo, 23.05. 21:00 15.9° C bedeckt
Mo, 23.05. 20:30 16.0° C bedeckt
Mo, 23.05. 20:00 17.0° C bedeckt
Ortszeit Relative Feuchte Sichtweite
Mo, 23.05. 20:00 87% 40 km
Mo, 23.05. 14:00 62% 35 km
Mo, 23.05. 8:00 81% 40 km
Mo, 23.05. 2:00 86% 50 km
So, 22.05. 20:00 48% >70 km
So, 22.05. 14:00 48% 50 km
So, 22.05. 8:00 81% 55 km
So, 22.05. 2:00 92% 50 km
Ortszeit Relative Feuchte Sichtweite
Mo, 23.05. 23:00 93% 25 km
Mo, 23.05. 22:50 93% -
Mo, 23.05. 22:40 88% -
Mo, 23.05. 22:30 88% 45 km
Mo, 23.05. 22:20 88% -
Mo, 23.05. 22:10 93% -
Mo, 23.05. 22:00 87% 35 km
Mo, 23.05. 21:30 90% 22 km
Mo, 23.05. 21:00 93% 30 km
Mo, 23.05. 20:30 92% 35 km
Mo, 23.05. 20:00 87% 40 km
Ortszeit Niederschlagsmenge Niederschlagsart
Mo, 23.05. 20:00 0.6 l/m2 in 12 Std. Regen
Mo, 23.05. 14:00 0.1 l/m2 in 6 Std. Regen
Mo, 23.05. 8:00 0.0 l/m2 in 12 Std. -
Mo, 23.05. 2:00 0.0 l/m2 in 6 Std. -
So, 22.05. 20:00 0.0 l/m2 in 12 Std. -
So, 22.05. 14:00 0.0 l/m2 in 6 Std. -
So, 22.05. 8:00 0.0 l/m2 in 12 Std. -
So, 22.05. 2:00 0.0 l/m2 in 6 Std. -
Ortszeit Niederschlagsmenge Niederschlagsart
Mo, 23.05. 23:00 1.0 l/m2 in 1 Std. Regen
Mo, 23.05. 22:50 keine Meldung -
Mo, 23.05. 22:40 keine Meldung -
Mo, 23.05. 22:30 0.8 l/m2 in 1 Std. -
Mo, 23.05. 22:20 keine Meldung -
Mo, 23.05. 22:10 keine Meldung -
Mo, 23.05. 22:00 0.6 l/m2 in 1 Std. Regen
Mo, 23.05. 21:30 0.1 l/m2 in 1 Std. -
Mo, 23.05. 21:00 0.0 l/m2 in 1 Std. -
Mo, 23.05. 20:30 0.0 l/m2 in 1 Std. -
Mo, 23.05. 20:00 0.0 l/m2 in 1 Std. Regen
Ortszeit Stärke Spitze Richtung
km/h Bft. km/h Grad Sektor
Mo, 23.05. 20:00 4 1 40 160° S
Mo, 23.05. 14:00 13 3 31 100° O
Mo, 23.05. 8:00 4 1 11 10° N
Mo, 23.05. 2:00 7 2 11 90° O
So, 22.05. 20:00 7 2 22 340° N
So, 22.05. 14:00 7 2 25 320° NW
So, 22.05. 8:00 4 1 4 250° W
So, 22.05. 2:00 0 0 29 - -
Ortszeit Stärke Spitze Richtung
km/h Bft. km/h Grad Sektor
Mo, 23.05. 23:00 7 2 18 120° SO
Mo, 23.05. 22:50 7 2 - 120° SO
Mo, 23.05. 22:40 9 2 - 130° SO
Mo, 23.05. 22:30 11 2 18 80° O
Mo, 23.05. 22:20 11 2 - 80° O
Mo, 23.05. 22:10 11 2 - 70° O
Mo, 23.05. 22:00 7 2 32 140° SO
Mo, 23.05. 21:30 7 2 25 210° SW
Mo, 23.05. 21:00 11 2 14 230° SW
Mo, 23.05. 20:30 6 1 11 360° N
Mo, 23.05. 20:00 4 1 11 160° S
Ortszeit Untergrenze Bedeckung Gattung
total tief tief mittel hoch
Mo, 23.05. 20:00 5400 m 8/8 8/8 - - -
Mo, 23.05. 14:00 2700 m 8/8 7/8 - - -
Mo, 23.05. 8:00 4200 m 8/8 8/8 - - -
Mo, 23.05. 2:00 6900 m 8/8 7/8 - - -
So, 22.05. 20:00 10500 m 1/8 0/8 - - -
So, 22.05. 14:00 1500 m 6/8 6/8 - - -
So, 22.05. 8:00 2700 m 8/8 5/8 - - -
So, 22.05. 2:00 4200 m 8/8 8/8 - - -
Ortszeit Bedeckungsgrad in Achtel und Wolkenuntergrenze
Mo, 23.05. 23:00 2(1800m) 7(2400m)
Mo, 23.05. 22:50 2(1800m) 7(2400m)
Mo, 23.05. 22:40 7
Mo, 23.05. 22:30 2(2100m) 7(2400m)
Mo, 23.05. 22:20 2(2100m) 7(2400m)
Mo, 23.05. 22:10 7
Mo, 23.05. 22:00 1(1410m) 6(2100m) 8(2400m)
Mo, 23.05. 21:30 1(1260m) 7(1800m) 8(2700m)
Mo, 23.05. 21:00 8(2700m)
Mo, 23.05. 20:30 5(3300m) 8(6300m)
Mo, 23.05. 20:00 3(5400m) 8(6000m)
Ortszeit Luftdruck NN (hPa) Tendenz (hPa in 3 Std.)
Mo, 23.05. 20:00 1003 - 2,0
Mo, 23.05. 14:00 1006 - 2,7
Mo, 23.05. 8:00 1010 - 1,6
Mo, 23.05. 2:00 1013 - 0,7
So, 22.05. 20:00 1013 - 0,3
So, 22.05. 14:00 1015 - 1,1
So, 22.05. 8:00 1018 - 0,6
So, 22.05. 2:00 1020 - 0,7
Ortszeit Luftdruck NN (hPa) Tendenz (hPa in 3 Std.)
Mo, 23.05. 23:00 1005 + 1,3
Mo, 23.05. 22:50 1005 keine Meldung
Mo, 23.05. 22:40 1005 keine Meldung
Mo, 23.05. 22:30 1005 + 1,6
Mo, 23.05. 22:20 1005 keine Meldung
Mo, 23.05. 22:10 1006 keine Meldung
Mo, 23.05. 22:00 1006 + 2,1
Mo, 23.05. 21:30 1006 + 3,2
Mo, 23.05. 21:00 1005 + 0,4
Mo, 23.05. 20:30 1004 - 1,4
Mo, 23.05. 20:00 1003 - 2,0
Ortszeit Schneehöhe (cm)
Mo, 23.05. 20:00 -
Mo, 23.05. 14:00 -
Mo, 23.05. 8:00 -
Mo, 23.05. 2:00 -
So, 22.05. 20:00 -
So, 22.05. 14:00 -
So, 22.05. 8:00 -
So, 22.05. 2:00 -
Ortszeit Schneehöhe (cm)
Mo, 23.05. 23:00 -
Mo, 23.05. 22:50 -
Mo, 23.05. 22:40 -
Mo, 23.05. 22:30 -
Mo, 23.05. 22:20 -
Mo, 23.05. 22:10 -
Mo, 23.05. 22:00 -
Mo, 23.05. 21:30 -
Mo, 23.05. 21:00 -
Mo, 23.05. 20:30 -
Mo, 23.05. 20:00 -
Link zu dieser Seite / Seite empfehlen

Das Wetter in ...